Yvonne K. — PBLX — position and weather

sailwx.info

Track history (hours):
 
Tides and Currents Weather Stations Pressure Air Temp Water Temp Dewpoint Dewpoint Depression Visibility Wind Speed Wind Dir Waves Ship Positions

Yvonne K.

Last reported at 2017-Feb-28 08:06 UTC. Time now 2017-Feb-28 14:34 UTC.
Position N 37°25' W 000°46'.

Length 90 m; draft 5.4 m.

Type: Cargo ship. MMSI: 244948000.

Date/timePositionNaut miles runAvg speedWind from/ knotsBaromVisibWave heightAir tempDewpointWater temp
2017-Feb-28 08:06N 37°25' W 000°46'14 8.8
2017-Feb-28 06:33N 37°34' W 000°33'9 8.7
2017-Feb-28 05:34N 37°42' W 000°27'  
2017-Feb-23 15:14N 40°28' E 000°49'811.0
2017-Feb-23 14:33N 40°35' E 000°54'1111.0
2017-Feb-23 13:33N 40°44' E 001°01'24 2.3
2017-Feb-23 03:19N 41°06' E 001°14'0 0.0
2017-Feb-23 02:19N 41°06' E 001°14'0 0.0
2017-Feb-23 01:31N 41°06' E 001°14'0 0.0
2017-Feb-23 00:31N 41°06' E 001°14'0 0.0
2017-Feb-22 23:31N 41°06' E 001°14'1 0.0
2017-Feb-21 19:19N 41°05' E 001°14'3 0.3
2017-Feb-21 09:18N 41°06' E 001°17'7 9.6
2017-Feb-21 08:33N 41°05' E 001°27'1310.0
2017-Feb-21 07:16N 41°07' E 001°44'27 9.6
2017-Feb-21 04:30N 41°11' E 002°19'9 9.7
2017-Feb-21 03:32N 41°18' E 002°28'10 9.9
2017-Feb-21 02:33N 41°24' E 002°37'10 9.8
2017-Feb-21 01:31N 41°31' E 002°47'9 9.6
2017-Feb-21 00:33N 41°38' E 002°56'19 9.8
2017-Feb-20 22:33N 41°51' E 003°15'  
Track history (hours):
 
Tides and Currents Weather Stations Pressure Air Temp Water Temp Dewpoint Dewpoint Depression Visibility Wind Speed Wind Dir Waves Ship Positions

Yvonne K.

Last reported at 2017-Feb-28 08:06 UTC. Time now 2017-Feb-28 14:34 UTC.
Position N 37°25' W 000°46'.

Length 90 m; draft 5.4 m.

Type: Cargo ship. MMSI: 244948000.

Date/timePositionNaut miles runAvg speedWind from/ knotsBaromVisibWave heightAir tempDewpointWater temp
2017-Feb-28 08:06N 37°25' W 000°46'14 8.8
2017-Feb-28 06:33N 37°34' W 000°33'9 8.7
2017-Feb-28 05:34N 37°42' W 000°27'  
2017-Feb-23 15:14N 40°28' E 000°49'811.0
2017-Feb-23 14:33N 40°35' E 000°54'1111.0
2017-Feb-23 13:33N 40°44' E 001°01'24 2.3
2017-Feb-23 03:19N 41°06' E 001°14'0 0.0
2017-Feb-23 02:19N 41°06' E 001°14'0 0.0
2017-Feb-23 01:31N 41°06' E 001°14'0 0.0
2017-Feb-23 00:31N 41°06' E 001°14'0 0.0
2017-Feb-22 23:31N 41°06' E 001°14'1 0.0
2017-Feb-21 19:19N 41°05' E 001°14'3 0.3
2017-Feb-21 09:18N 41°06' E 001°17'7 9.6
2017-Feb-21 08:33N 41°05' E 001°27'1310.0
2017-Feb-21 07:16N 41°07' E 001°44'27 9.6
2017-Feb-21 04:30N 41°11' E 002°19'9 9.7
2017-Feb-21 03:32N 41°18' E 002°28'10 9.9
2017-Feb-21 02:33N 41°24' E 002°37'10 9.8
2017-Feb-21 01:31N 41°31' E 002°47'9 9.6
2017-Feb-21 00:33N 41°38' E 002°56'19 9.8
2017-Feb-20 22:33N 41°51' E 003°15'  

Dump ship's entire track history